sensor_id;sensor_type;location;lat;lon;timestamp;temperature;humidity
29341;DHT22;16337;59.536;13.468;2022-12-15T00:01:26;-14.30;99.90
29341;DHT22;16337;59.536;13.468;2022-12-15T00:04:10;-14.30;99.90
29341;DHT22;16337;59.536;13.468;2022-12-15T00:06:54;-14.20;99.90
29341;DHT22;16337;59.536;13.468;2022-12-15T00:09:39;-14.20;99.90
29341;DHT22;16337;59.536;13.468;2022-12-15T00:12:23;-14.20;99.90
29341;DHT22;16337;59.536;13.468;2022-12-15T00:15:07;-14.20;99.90
29341;DHT22;16337;59.536;13.468;2022-12-15T00:17:51;-14.20;99.90
29341;DHT22;16337;59.536;13.468;2022-12-15T00:20:39;-14.10;99.90
29341;DHT22;16337;59.536;13.468;2022-12-15T00:23:23;-14.00;99.90
29341;DHT22;16337;59.536;13.468;2022-12-15T00:26:07;-14.00;99.90
29341;DHT22;16337;59.536;13.468;2022-12-15T00:28:51;-14.00;99.90
29341;DHT22;16337;59.536;13.468;2022-12-15T00:31:35;-14.10;99.90
29341;DHT22;16337;59.536;13.468;2022-12-15T00:34:19;-14.30;99.90
29341;DHT22;16337;59.536;13.468;2022-12-15T00:37:03;-14.40;99.90
29341;DHT22;16337;59.536;13.468;2022-12-15T00:39:47;-14.40;99.90
29341;DHT22;16337;59.536;13.468;2022-12-15T00:42:27;-14.50;99.90
29341;DHT22;16337;59.536;13.468;2022-12-15T00:44:54;-14.50;99.90
29341;DHT22;16337;59.536;13.468;2022-12-15T00:47:20;-14.60;99.90
29341;DHT22;16337;59.536;13.468;2022-12-15T00:49:45;-14.60;99.90
29341;DHT22;16337;59.536;13.468;2022-12-15T00:52:29;-14.50;99.90
29341;DHT22;16337;59.536;13.468;2022-12-15T00:55:14;-14.50;99.90
29341;DHT22;16337;59.536;13.468;2022-12-15T00:57:58;-14.50;99.90
29341;DHT22;16337;59.536;13.468;2022-12-15T01:00:42;-14.50;99.90
29341;DHT22;16337;59.536;13.468;2022-12-15T01:03:26;-14.60;99.90
29341;DHT22;16337;59.536;13.468;2022-12-15T01:06:14;-14.60;99.90
29341;DHT22;16337;59.536;13.468;2022-12-15T01:08:59;-14.70;99.90
29341;DHT22;16337;59.536;13.468;2022-12-15T01:11:44;-14.70;99.90
29341;DHT22;16337;59.536;13.468;2022-12-15T01:14:29;-14.70;99.90
29341;DHT22;16337;59.536;13.468;2022-12-15T01:17:14;-14.70;99.90
29341;DHT22;16337;59.536;13.468;2022-12-15T01:19:58;-14.60;99.90
29341;DHT22;16337;59.536;13.468;2022-12-15T01:22:59;-14.70;99.90
29341;DHT22;16337;59.536;13.468;2022-12-15T01:25:25;-14.70;99.90
29341;DHT22;16337;59.536;13.468;2022-12-15T01:27:52;-14.70;99.90
29341;DHT22;16337;59.536;13.468;2022-12-15T01:30:21;-14.70;99.90
29341;DHT22;16337;59.536;13.468;2022-12-15T01:32:47;-14.70;99.90
29341;DHT22;16337;59.536;13.468;2022-12-15T01:35:13;-14.70;99.90
29341;DHT22;16337;59.536;13.468;2022-12-15T01:37:39;-14.70;99.90
29341;DHT22;16337;59.536;13.468;2022-12-15T01:40:14;-14.70;99.90
29341;DHT22;16337;59.536;13.468;2022-12-15T01:42:59;-14.80;99.90
29341;DHT22;16337;59.536;13.468;2022-12-15T01:48:05;-14.80;99.90
29341;DHT22;16337;59.536;13.468;2022-12-15T01:53:27;-15.00;99.90
29341;DHT22;16337;59.536;13.468;2022-12-15T01:55:54;-15.00;99.90
29341;DHT22;16337;59.536;13.468;2022-12-15T01:58:21;-15.00;99.90
29341;DHT22;16337;59.536;13.468;2022-12-15T02:00:47;-15.10;99.90
29341;DHT22;16337;59.536;13.468;2022-12-15T02:03:13;-15.10;99.90
29341;DHT22;16337;59.536;13.468;2022-12-15T02:05:49;-15.20;99.90
29341;DHT22;16337;59.536;13.468;2022-12-15T02:08:14;-15.20;99.90
29341;DHT22;16337;59.536;13.468;2022-12-15T02:19:18;-15.50;99.90
29341;DHT22;16337;59.536;13.468;2022-12-15T02:27:41;-15.50;99.90
29341;DHT22;16337;59.536;13.468;2022-12-15T02:32:58;-15.60;99.90
29341;DHT22;16337;59.536;13.468;2022-12-15T02:35:34;-15.60;99.90
29341;DHT22;16337;59.536;13.468;2022-12-15T02:38:02;-15.60;99.90
29341;DHT22;16337;59.536;13.468;2022-12-15T02:40:28;-15.50;99.90
29341;DHT22;16337;59.536;13.468;2022-12-15T02:42:57;-15.50;99.90
29341;DHT22;16337;59.536;13.468;2022-12-15T02:45:52;-15.50;99.90
29341;DHT22;16337;59.536;13.468;2022-12-15T03:02:05;-15.90;99.90
29341;DHT22;16337;59.536;13.468;2022-12-15T03:04:33;-16.00;99.90
29341;DHT22;16337;59.536;13.468;2022-12-15T03:07:05;-16.10;99.90
29341;DHT22;16337;59.536;13.468;2022-12-15T03:09:32;-16.10;99.90
29341;DHT22;16337;59.536;13.468;2022-12-15T03:11:58;-16.10;99.90
29341;DHT22;16337;59.536;13.468;2022-12-15T03:14:24;-16.10;99.90
29341;DHT22;16337;59.536;13.468;2022-12-15T03:16:50;-16.20;99.90
29341;DHT22;16337;59.536;13.468;2022-12-15T03:19:16;-16.20;99.90
29341;DHT22;16337;59.536;13.468;2022-12-15T03:21:42;-16.20;99.90
29341;DHT22;16337;59.536;13.468;2022-12-15T03:24:08;-16.20;99.90
29341;DHT22;16337;59.536;13.468;2022-12-15T03:26:33;-16.20;99.90
29341;DHT22;16337;59.536;13.468;2022-12-15T03:28:59;-16.20;99.90
29341;DHT22;16337;59.536;13.468;2022-12-15T03:31:25;-16.10;99.90
29341;DHT22;16337;59.536;13.468;2022-12-15T03:33:51;-16.00;99.90
29341;DHT22;16337;59.536;13.468;2022-12-15T03:36:17;-15.90;99.90
29341;DHT22;16337;59.536;13.468;2022-12-15T03:38:42;-15.80;99.90
29341;DHT22;16337;59.536;13.468;2022-12-15T03:41:08;-15.70;99.90
29341;DHT22;16337;59.536;13.468;2022-12-15T03:43:34;-15.70;99.90
29341;DHT22;16337;59.536;13.468;2022-12-15T03:45:59;-15.70;99.90
29341;DHT22;16337;59.536;13.468;2022-12-15T03:48:25;-15.70;99.90
29341;DHT22;16337;59.536;13.468;2022-12-15T03:50:51;-15.80;99.90
29341;DHT22;16337;59.536;13.468;2022-12-15T03:53:17;-15.90;99.90
29341;DHT22;16337;59.536;13.468;2022-12-15T03:55:43;-15.90;99.90
29341;DHT22;16337;59.536;13.468;2022-12-15T03:58:08;-15.80;99.90
29341;DHT22;16337;59.536;13.468;2022-12-15T04:00:34;-15.80;99.90
29341;DHT22;16337;59.536;13.468;2022-12-15T04:03:00;-15.70;99.90
29341;DHT22;16337;59.536;13.468;2022-12-15T04:05:31;-15.60;99.90
29341;DHT22;16337;59.536;13.468;2022-12-15T04:07:58;-15.50;99.90
29341;DHT22;16337;59.536;13.468;2022-12-15T04:10:26;-15.50;99.90
29341;DHT22;16337;59.536;13.468;2022-12-15T04:13:06;-15.40;99.90
29341;DHT22;16337;59.536;13.468;2022-12-15T04:15:33;-15.30;99.90
29341;DHT22;16337;59.536;13.468;2022-12-15T04:18:01;-15.30;99.90
29341;DHT22;16337;59.536;13.468;2022-12-15T04:20:27;-15.30;99.90
29341;DHT22;16337;59.536;13.468;2022-12-15T04:22:54;-15.40;99.90
29341;DHT22;16337;59.536;13.468;2022-12-15T04:25:21;-15.40;99.90
29341;DHT22;16337;59.536;13.468;2022-12-15T04:28:08;-15.40;99.90
29341;DHT22;16337;59.536;13.468;2022-12-15T04:31:11;-15.40;99.90
29341;DHT22;16337;59.536;13.468;2022-12-15T04:34:03;-15.40;99.90
29341;DHT22;16337;59.536;13.468;2022-12-15T04:36:49;-15.30;99.90
29341;DHT22;16337;59.536;13.468;2022-12-15T04:39:36;-15.20;99.90
29341;DHT22;16337;59.536;13.468;2022-12-15T04:42:21;-15.20;99.90
29341;DHT22;16337;59.536;13.468;2022-12-15T04:45:06;-15.10;99.90
29341;DHT22;16337;59.536;13.468;2022-12-15T04:47:51;-15.10;99.90
29341;DHT22;16337;59.536;13.468;2022-12-15T04:50:35;-15.00;99.90
29341;DHT22;16337;59.536;13.468;2022-12-15T04:53:20;-15.00;99.90
29341;DHT22;16337;59.536;13.468;2022-12-15T04:56:12;-15.00;99.90
29341;DHT22;16337;59.536;13.468;2022-12-15T04:58:57;-15.00;99.90
29341;DHT22;16337;59.536;13.468;2022-12-15T05:01:41;-15.00;99.90
29341;DHT22;16337;59.536;13.468;2022-12-15T05:04:25;-14.90;99.90
29341;DHT22;16337;59.536;13.468;2022-12-15T05:07:09;-14.90;99.90
29341;DHT22;16337;59.536;13.468;2022-12-15T05:09:53;-14.90;99.90
29341;DHT22;16337;59.536;13.468;2022-12-15T05:12:37;-14.80;99.90
29341;DHT22;16337;59.536;13.468;2022-12-15T05:15:22;-14.80;99.90
29341;DHT22;16337;59.536;13.468;2022-12-15T05:18:06;-14.80;99.90
29341;DHT22;16337;59.536;13.468;2022-12-15T05:20:50;-14.80;99.90
29341;DHT22;16337;59.536;13.468;2022-12-15T05:23:34;-14.80;99.90
29341;DHT22;16337;59.536;13.468;2022-12-15T05:26:19;-14.70;99.90
29341;DHT22;16337;59.536;13.468;2022-12-15T05:29:04;-14.70;99.90
29341;DHT22;16337;59.536;13.468;2022-12-15T05:31:48;-14.80;99.90
29341;DHT22;16337;59.536;13.468;2022-12-15T05:34:29;-14.70;99.90
29341;DHT22;16337;59.536;13.468;2022-12-15T05:36:56;-14.70;99.90
29341;DHT22;16337;59.536;13.468;2022-12-15T05:39:23;-14.70;99.90
29341;DHT22;16337;59.536;13.468;2022-12-15T05:41:50;-14.60;99.90
29341;DHT22;16337;59.536;13.468;2022-12-15T05:44:16;-14.50;99.90
29341;DHT22;16337;59.536;13.468;2022-12-15T05:46:42;-14.40;99.90
29341;DHT22;16337;59.536;13.468;2022-12-15T05:49:10;-14.40;99.90
29341;DHT22;16337;59.536;13.468;2022-12-15T05:51:37;-14.30;99.90
29341;DHT22;16337;59.536;13.468;2022-12-15T05:54:05;-14.30;99.90
29341;DHT22;16337;59.536;13.468;2022-12-15T05:56:31;-14.20;99.90
29341;DHT22;16337;59.536;13.468;2022-12-15T05:58:57;-14.20;99.90
29341;DHT22;16337;59.536;13.468;2022-12-15T06:01:23;-14.20;99.90
29341;DHT22;16337;59.536;13.468;2022-12-15T06:03:50;-14.20;99.90
29341;DHT22;16337;59.536;13.468;2022-12-15T06:06:16;-14.20;99.90
29341;DHT22;16337;59.536;13.468;2022-12-15T06:08:42;-14.20;99.90
29341;DHT22;16337;59.536;13.468;2022-12-15T06:11:13;-14.20;99.90
29341;DHT22;16337;59.536;13.468;2022-12-15T06:13:39;-14.20;99.90
29341;DHT22;16337;59.536;13.468;2022-12-15T06:16:10;-14.20;99.90
29341;DHT22;16337;59.536;13.468;2022-12-15T06:18:39;-14.20;99.90
29341;DHT22;16337;59.536;13.468;2022-12-15T06:21:11;-14.20;99.90
29341;DHT22;16337;59.536;13.468;2022-12-15T06:23:38;-14.30;99.90
29341;DHT22;16337;59.536;13.468;2022-12-15T06:28:34;-14.30;99.90
29341;DHT22;16337;59.536;13.468;2022-12-15T06:31:02;-14.40;99.90
29341;DHT22;16337;59.536;13.468;2022-12-15T06:33:28;-14.40;99.90
29341;DHT22;16337;59.536;13.468;2022-12-15T06:35:55;-14.40;99.90
29341;DHT22;16337;59.536;13.468;2022-12-15T06:38:21;-14.50;99.90
29341;DHT22;16337;59.536;13.468;2022-12-15T06:40:54;-14.50;99.90
29341;DHT22;16337;59.536;13.468;2022-12-15T06:43:20;-14.60;99.90
29341;DHT22;16337;59.536;13.468;2022-12-15T06:45:49;-14.60;99.90
29341;DHT22;16337;59.536;13.468;2022-12-15T06:48:16;-14.60;99.90
29341;DHT22;16337;59.536;13.468;2022-12-15T06:50:43;-14.70;99.90
29341;DHT22;16337;59.536;13.468;2022-12-15T06:53:11;-14.70;99.90
29341;DHT22;16337;59.536;13.468;2022-12-15T06:55:36;-14.80;99.90
29341;DHT22;16337;59.536;13.468;2022-12-15T06:58:02;-14.80;99.90
29341;DHT22;16337;59.536;13.468;2022-12-15T07:00:28;-14.80;99.90
29341;DHT22;16337;59.536;13.468;2022-12-15T07:02:54;-14.80;99.90
29341;DHT22;16337;59.536;13.468;2022-12-15T07:05:20;-14.70;99.90
29341;DHT22;16337;59.536;13.468;2022-12-15T07:07:46;-14.70;99.90
29341;DHT22;16337;59.536;13.468;2022-12-15T07:10:12;-14.70;99.90
29341;DHT22;16337;59.536;13.468;2022-12-15T07:12:38;-14.70;99.90
29341;DHT22;16337;59.536;13.468;2022-12-15T07:15:04;-14.70;99.90
29341;DHT22;16337;59.536;13.468;2022-12-15T07:17:30;-14.70;99.90
29341;DHT22;16337;59.536;13.468;2022-12-15T07:19:56;-14.60;99.90
29341;DHT22;16337;59.536;13.468;2022-12-15T07:22:21;-14.60;99.90
29341;DHT22;16337;59.536;13.468;2022-12-15T07:24:47;-14.60;99.90
29341;DHT22;16337;59.536;13.468;2022-12-15T07:27:13;-14.60;99.90
29341;DHT22;16337;59.536;13.468;2022-12-15T07:29:39;-14.60;99.90
29341;DHT22;16337;59.536;13.468;2022-12-15T07:32:05;-14.60;99.90
29341;DHT22;16337;59.536;13.468;2022-12-15T07:34:30;-14.60;99.90
29341;DHT22;16337;59.536;13.468;2022-12-15T07:36:56;-14.60;99.90
29341;DHT22;16337;59.536;13.468;2022-12-15T07:39:22;-14.60;99.90
29341;DHT22;16337;59.536;13.468;2022-12-15T07:41:48;-14.60;99.90
29341;DHT22;16337;59.536;13.468;2022-12-15T07:44:14;-14.60;99.90
29341;DHT22;16337;59.536;13.468;2022-12-15T07:46:40;-14.80;99.90
29341;DHT22;16337;59.536;13.468;2022-12-15T07:49:05;-14.80;99.90
29341;DHT22;16337;59.536;13.468;2022-12-15T07:51:31;-14.90;99.90
29341;DHT22;16337;59.536;13.468;2022-12-15T07:53:57;-14.90;99.90
29341;DHT22;16337;59.536;13.468;2022-12-15T07:56:23;-14.80;99.90
29341;DHT22;16337;59.536;13.468;2022-12-15T07:58:49;-14.80;99.90
29341;DHT22;16337;59.536;13.468;2022-12-15T08:01:15;-14.70;99.90
29341;DHT22;16337;59.536;13.468;2022-12-15T08:03:42;-14.70;99.90
29341;DHT22;16337;59.536;13.468;2022-12-15T08:06:10;-14.60;99.90
29341;DHT22;16337;59.536;13.468;2022-12-15T08:08:36;-14.50;99.90
29341;DHT22;16337;59.536;13.468;2022-12-15T08:11:09;-14.40;99.90
29341;DHT22;16337;59.536;13.468;2022-12-15T08:13:36;-14.30;99.90
29341;DHT22;16337;59.536;13.468;2022-12-15T08:16:02;-14.30;99.90
29341;DHT22;16337;59.536;13.468;2022-12-15T08:18:28;-14.30;99.90
29341;DHT22;16337;59.536;13.468;2022-12-15T08:20:54;-14.30;99.90
29341;DHT22;16337;59.536;13.468;2022-12-15T08:23:19;-14.40;99.90
29341;DHT22;16337;59.536;13.468;2022-12-15T08:25:45;-14.50;99.90
29341;DHT22;16337;59.536;13.468;2022-12-15T08:28:12;-14.50;99.90
29341;DHT22;16337;59.536;13.468;2022-12-15T08:30:37;-14.40;99.90
29341;DHT22;16337;59.536;13.468;2022-12-15T08:33:03;-14.30;99.90
29341;DHT22;16337;59.536;13.468;2022-12-15T08:35:29;-14.30;99.90
29341;DHT22;16337;59.536;13.468;2022-12-15T08:37:55;-14.20;99.90
29341;DHT22;16337;59.536;13.468;2022-12-15T08:40:20;-14.20;99.90
29341;DHT22;16337;59.536;13.468;2022-12-15T08:42:46;-14.10;99.90
29341;DHT22;16337;59.536;13.468;2022-12-15T08:45:12;-14.10;99.90
29341;DHT22;16337;59.536;13.468;2022-12-15T08:47:38;-14.00;99.90
29341;DHT22;16337;59.536;13.468;2022-12-15T08:50:06;-14.00;99.90
29341;DHT22;16337;59.536;13.468;2022-12-15T08:52:33;-14.10;99.90
29341;DHT22;16337;59.536;13.468;2022-12-15T08:54:59;-14.10;99.90
29341;DHT22;16337;59.536;13.468;2022-12-15T08:57:25;-14.10;99.90
29341;DHT22;16337;59.536;13.468;2022-12-15T08:59:51;-14.10;99.90
29341;DHT22;16337;59.536;13.468;2022-12-15T09:02:17;-14.00;99.90
29341;DHT22;16337;59.536;13.468;2022-12-15T09:04:43;-13.90;99.90
29341;DHT22;16337;59.536;13.468;2022-12-15T09:07:09;-13.90;99.90
29341;DHT22;16337;59.536;13.468;2022-12-15T09:09:35;-13.80;99.90
29341;DHT22;16337;59.536;13.468;2022-12-15T09:12:01;-13.80;99.90
29341;DHT22;16337;59.536;13.468;2022-12-15T09:14:27;-13.80;99.90
29341;DHT22;16337;59.536;13.468;2022-12-15T09:16:53;-13.80;99.90
29341;DHT22;16337;59.536;13.468;2022-12-15T09:19:18;-13.80;99.90
29341;DHT22;16337;59.536;13.468;2022-12-15T09:21:44;-13.70;99.90
29341;DHT22;16337;59.536;13.468;2022-12-15T09:24:12;-13.70;99.90
29341;DHT22;16337;59.536;13.468;2022-12-15T09:26:38;-13.70;99.90
29341;DHT22;16337;59.536;13.468;2022-12-15T09:29:05;-13.60;99.90
29341;DHT22;16337;59.536;13.468;2022-12-15T09:31:34;-13.60;99.90
29341;DHT22;16337;59.536;13.468;2022-12-15T09:34:00;-13.50;99.90
29341;DHT22;16337;59.536;13.468;2022-12-15T09:36:27;-13.50;99.90
29341;DHT22;16337;59.536;13.468;2022-12-15T09:38:54;-13.40;99.90
29341;DHT22;16337;59.536;13.468;2022-12-15T09:41:25;-13.30;99.90
29341;DHT22;16337;59.536;13.468;2022-12-15T09:46:48;-13.20;99.90
29341;DHT22;16337;59.536;13.468;2022-12-15T09:49:21;-13.10;99.90
29341;DHT22;16337;59.536;13.468;2022-12-15T09:51:57;-13.00;99.90
29341;DHT22;16337;59.536;13.468;2022-12-15T09:54:28;-13.00;99.90
29341;DHT22;16337;59.536;13.468;2022-12-15T09:56:57;-13.00;99.90
29341;DHT22;16337;59.536;13.468;2022-12-15T09:59:54;-13.10;99.90
29341;DHT22;16337;59.536;13.468;2022-12-15T10:07:49;-13.20;99.90
29341;DHT22;16337;59.536;13.468;2022-12-15T10:10:29;-13.10;99.90
29341;DHT22;16337;59.536;13.468;2022-12-15T10:13:01;-13.00;99.90
29341;DHT22;16337;59.536;13.468;2022-12-15T10:15:56;-13.00;99.90
29341;DHT22;16337;59.536;13.468;2022-12-15T10:18:29;-12.90;99.90
29341;DHT22;16337;59.536;13.468;2022-12-15T10:20:59;-12.90;99.90
29341;DHT22;16337;59.536;13.468;2022-12-15T10:23:26;-12.80;99.90
29341;DHT22;16337;59.536;13.468;2022-12-15T10:26:18;-12.70;99.90
29341;DHT22;16337;59.536;13.468;2022-12-15T10:32:04;-12.70;99.90
29341;DHT22;16337;59.536;13.468;2022-12-15T10:34:36;-12.60;99.90
29341;DHT22;16337;59.536;13.468;2022-12-15T10:37:05;-12.60;99.90
29341;DHT22;16337;59.536;13.468;2022-12-15T10:39:39;-12.60;99.90
29341;DHT22;16337;59.536;13.468;2022-12-15T10:42:13;-12.60;99.90
29341;DHT22;16337;59.536;13.468;2022-12-15T10:44:42;-12.70;99.90
29341;DHT22;16337;59.536;13.468;2022-12-15T10:47:19;-12.70;99.90
29341;DHT22;16337;59.536;13.468;2022-12-15T10:49:46;-12.70;99.90
29341;DHT22;16337;59.536;13.468;2022-12-15T10:52:31;-12.80;99.90
29341;DHT22;16337;59.536;13.468;2022-12-15T10:54:59;-12.80;99.90
29341;DHT22;16337;59.536;13.468;2022-12-15T10:57:27;-12.80;99.90
29341;DHT22;16337;59.536;13.468;2022-12-15T11:02:43;-12.70;99.90
29341;DHT22;16337;59.536;13.468;2022-12-15T11:07:47;-12.60;99.90
29341;DHT22;16337;59.536;13.468;2022-12-15T11:10:20;-12.60;99.90
29341;DHT22;16337;59.536;13.468;2022-12-15T11:13:13;-12.60;99.90
29341;DHT22;16337;59.536;13.468;2022-12-15T11:15:47;-12.60;99.90
29341;DHT22;16337;59.536;13.468;2022-12-15T11:26:02;-12.60;99.90
29341;DHT22;16337;59.536;13.468;2022-12-15T11:28:37;-12.60;99.90
29341;DHT22;16337;59.536;13.468;2022-12-15T11:31:27;-12.70;99.90
29341;DHT22;16337;59.536;13.468;2022-12-15T11:33:55;-12.70;99.90
29341;DHT22;16337;59.536;13.468;2022-12-15T11:44:58;-12.80;99.90
29341;DHT22;16337;59.536;13.468;2022-12-15T11:50:30;-12.90;99.90
29341;DHT22;16337;59.536;13.468;2022-12-15T11:59:30;-12.90;99.90
29341;DHT22;16337;59.536;13.468;2022-12-15T12:18:18;-13.10;99.90
29341;DHT22;16337;59.536;13.468;2022-12-15T12:20:49;-13.10;99.90
29341;DHT22;16337;59.536;13.468;2022-12-15T12:23:41;-13.20;99.90
29341;DHT22;16337;59.536;13.468;2022-12-15T12:26:22;-13.20;99.90
29341;DHT22;16337;59.536;13.468;2022-12-15T12:29:25;-13.20;99.90
29341;DHT22;16337;59.536;13.468;2022-12-15T12:32:08;-13.30;99.90
29341;DHT22;16337;59.536;13.468;2022-12-15T12:37:29;-13.30;99.90
29341;DHT22;16337;59.536;13.468;2022-12-15T12:39:59;-13.40;99.90
29341;DHT22;16337;59.536;13.468;2022-12-15T12:42:39;-13.40;99.90
29341;DHT22;16337;59.536;13.468;2022-12-15T12:45:10;-13.50;99.90
29341;DHT22;16337;59.536;13.468;2022-12-15T12:47:40;-13.60;99.90
29341;DHT22;16337;59.536;13.468;2022-12-15T12:50:16;-13.70;99.90
29341;DHT22;16337;59.536;13.468;2022-12-15T12:52:51;-13.80;99.90
29341;DHT22;16337;59.536;13.468;2022-12-15T12:55:37;-13.90;99.90
29341;DHT22;16337;59.536;13.468;2022-12-15T13:01:43;-14.00;99.90
29341;DHT22;16337;59.536;13.468;2022-12-15T13:04:38;-14.00;99.90
29341;DHT22;16337;59.536;13.468;2022-12-15T13:12:48;-14.10;99.90
29341;DHT22;16337;59.536;13.468;2022-12-15T13:15:37;-14.10;99.90
29341;DHT22;16337;59.536;13.468;2022-12-15T13:18:19;-14.10;99.90
29341;DHT22;16337;59.536;13.468;2022-12-15T13:20:48;-14.10;99.90
29341;DHT22;16337;59.536;13.468;2022-12-15T13:28:39;-14.20;99.90
29341;DHT22;16337;59.536;13.468;2022-12-15T13:31:26;-14.30;99.90
29341;DHT22;16337;59.536;13.468;2022-12-15T13:34:00;-14.30;99.90
29341;DHT22;16337;59.536;13.468;2022-12-15T13:44:27;-14.40;99.90
29341;DHT22;16337;59.536;13.468;2022-12-15T13:46:57;-14.40;99.90
29341;DHT22;16337;59.536;13.468;2022-12-15T13:49:32;-14.40;99.90
29341;DHT22;16337;59.536;13.468;2022-12-15T13:52:02;-14.40;99.90
29341;DHT22;16337;59.536;13.468;2022-12-15T13:54:35;-14.40;99.90
29341;DHT22;16337;59.536;13.468;2022-12-15T13:57:16;-14.50;99.90
29341;DHT22;16337;59.536;13.468;2022-12-15T13:59:47;-14.50;99.90
29341;DHT22;16337;59.536;13.468;2022-12-15T14:02:31;-14.50;99.90
29341;DHT22;16337;59.536;13.468;2022-12-15T14:05:20;-14.50;99.90
29341;DHT22;16337;59.536;13.468;2022-12-15T14:07:50;-14.50;99.90
29341;DHT22;16337;59.536;13.468;2022-12-15T14:12:54;-14.60;99.90
29341;DHT22;16337;59.536;13.468;2022-12-15T14:15:28;-14.70;99.90
29341;DHT22;16337;59.536;13.468;2022-12-15T14:17:57;-14.70;99.90
29341;DHT22;16337;59.536;13.468;2022-12-15T14:20:26;-14.80;99.90
29341;DHT22;16337;59.536;13.468;2022-12-15T14:22:52;-14.90;99.90
29341;DHT22;16337;59.536;13.468;2022-12-15T14:25:27;-14.90;99.90
29341;DHT22;16337;59.536;13.468;2022-12-15T14:27:56;-14.90;99.90
29341;DHT22;16337;59.536;13.468;2022-12-15T14:30:31;-14.80;99.90
29341;DHT22;16337;59.536;13.468;2022-12-15T14:36:05;-14.80;99.90
29341;DHT22;16337;59.536;13.468;2022-12-15T14:38:31;-14.80;99.90
29341;DHT22;16337;59.536;13.468;2022-12-15T14:41:00;-14.70;99.90
29341;DHT22;16337;59.536;13.468;2022-12-15T14:43:33;-14.70;99.90
29341;DHT22;16337;59.536;13.468;2022-12-15T14:46:11;-14.70;99.90
29341;DHT22;16337;59.536;13.468;2022-12-15T14:48:44;-14.70;99.90
29341;DHT22;16337;59.536;13.468;2022-12-15T14:51:14;-14.70;99.90
29341;DHT22;16337;59.536;13.468;2022-12-15T14:53:41;-14.70;99.90
29341;DHT22;16337;59.536;13.468;2022-12-15T14:59:16;-14.70;99.90
29341;DHT22;16337;59.536;13.468;2022-12-15T15:01:53;-14.90;99.90
29341;DHT22;16337;59.536;13.468;2022-12-15T15:04:28;-14.90;99.90
29341;DHT22;16337;59.536;13.468;2022-12-15T15:06:56;-15.10;99.90
29341;DHT22;16337;59.536;13.468;2022-12-15T15:09:31;-15.20;99.90
29341;DHT22;16337;59.536;13.468;2022-12-15T15:12:03;-15.30;99.90
29341;DHT22;16337;59.536;13.468;2022-12-15T15:14:31;-15.30;99.90
29341;DHT22;16337;59.536;13.468;2022-12-15T15:17:01;-15.30;99.90
29341;DHT22;16337;59.536;13.468;2022-12-15T15:19:28;-15.40;99.90
29341;DHT22;16337;59.536;13.468;2022-12-15T15:21:53;-15.40;99.90
29341;DHT22;16337;59.536;13.468;2022-12-15T15:24:23;-15.40;99.90
29341;DHT22;16337;59.536;13.468;2022-12-15T15:26:49;-15.40;99.90
29341;DHT22;16337;59.536;13.468;2022-12-15T15:29:38;-15.40;99.90
29341;DHT22;16337;59.536;13.468;2022-12-15T15:32:19;-15.30;99.90
29341;DHT22;16337;59.536;13.468;2022-12-15T15:34:46;-15.30;99.90
29341;DHT22;16337;59.536;13.468;2022-12-15T15:37:24;-15.30;99.90
29341;DHT22;16337;59.536;13.468;2022-12-15T15:39:54;-15.30;99.90
29341;DHT22;16337;59.536;13.468;2022-12-15T15:42:20;-15.20;99.90
29341;DHT22;16337;59.536;13.468;2022-12-15T15:44:47;-15.20;99.90
29341;DHT22;16337;59.536;13.468;2022-12-15T15:47:25;-15.20;99.90
29341;DHT22;16337;59.536;13.468;2022-12-15T15:49:52;-15.20;99.90
29341;DHT22;16337;59.536;13.468;2022-12-15T15:52:19;-15.20;99.90
29341;DHT22;16337;59.536;13.468;2022-12-15T15:54:45;-15.30;99.90
29341;DHT22;16337;59.536;13.468;2022-12-15T15:57:15;-15.30;99.90
29341;DHT22;16337;59.536;13.468;2022-12-15T15:59:42;-15.30;99.90
29341;DHT22;16337;59.536;13.468;2022-12-15T16:02:10;-15.40;99.90
29341;DHT22;16337;59.536;13.468;2022-12-15T16:04:36;-15.50;99.90
29341;DHT22;16337;59.536;13.468;2022-12-15T16:07:23;-15.50;99.90
29341;DHT22;16337;59.536;13.468;2022-12-15T16:09:51;-15.50;99.90
29341;DHT22;16337;59.536;13.468;2022-12-15T16:12:43;-15.60;99.90
29341;DHT22;16337;59.536;13.468;2022-12-15T16:15:24;-15.70;99.90
29341;DHT22;16337;59.536;13.468;2022-12-15T16:17:51;-15.70;99.90
29341;DHT22;16337;59.536;13.468;2022-12-15T16:20:19;-15.60;99.90
29341;DHT22;16337;59.536;13.468;2022-12-15T16:25:43;-15.30;99.90
29341;DHT22;16337;59.536;13.468;2022-12-15T16:28:18;-15.10;99.90
29341;DHT22;16337;59.536;13.468;2022-12-15T16:30:44;-15.00;99.90
29341;DHT22;16337;59.536;13.468;2022-12-15T16:33:11;-14.80;99.90
29341;DHT22;16337;59.536;13.468;2022-12-15T16:35:38;-14.70;99.90
29341;DHT22;16337;59.536;13.468;2022-12-15T16:40:50;-14.40;99.90
29341;DHT22;16337;59.536;13.468;2022-12-15T16:43:19;-14.30;99.90
29341;DHT22;16337;59.536;13.468;2022-12-15T16:45:47;-14.30;99.90
29341;DHT22;16337;59.536;13.468;2022-12-15T16:48:14;-14.30;99.90
29341;DHT22;16337;59.536;13.468;2022-12-15T16:50:46;-14.20;99.90
29341;DHT22;16337;59.536;13.468;2022-12-15T16:53:22;-14.10;99.90
29341;DHT22;16337;59.536;13.468;2022-12-15T16:55:52;-14.00;99.90
29341;DHT22;16337;59.536;13.468;2022-12-15T16:58:19;-14.00;99.90
29341;DHT22;16337;59.536;13.468;2022-12-15T17:00:45;-13.90;99.90
29341;DHT22;16337;59.536;13.468;2022-12-15T17:03:14;-13.80;99.90
29341;DHT22;16337;59.536;13.468;2022-12-15T17:05:42;-13.80;99.90
29341;DHT22;16337;59.536;13.468;2022-12-15T17:08:24;-13.80;99.90
29341;DHT22;16337;59.536;13.468;2022-12-15T17:10:51;-13.80;99.90
29341;DHT22;16337;59.536;13.468;2022-12-15T17:15:55;-13.90;99.90
29341;DHT22;16337;59.536;13.468;2022-12-15T17:18:21;-13.90;99.90
29341;DHT22;16337;59.536;13.468;2022-12-15T17:20:47;-14.00;99.90
29341;DHT22;16337;59.536;13.468;2022-12-15T17:23:21;-14.10;99.90
29341;DHT22;16337;59.536;13.468;2022-12-15T17:25:48;-14.20;99.90
29341;DHT22;16337;59.536;13.468;2022-12-15T17:28:25;-14.30;99.90
29341;DHT22;16337;59.536;13.468;2022-12-15T17:30:51;-14.40;99.90
29341;DHT22;16337;59.536;13.468;2022-12-15T17:33:25;-14.40;99.90
29341;DHT22;16337;59.536;13.468;2022-12-15T17:35:54;-14.50;99.90
29341;DHT22;16337;59.536;13.468;2022-12-15T17:38:21;-14.70;99.90
29341;DHT22;16337;59.536;13.468;2022-12-15T17:40:49;-14.90;99.90
29341;DHT22;16337;59.536;13.468;2022-12-15T17:43:17;-14.90;99.90
29341;DHT22;16337;59.536;13.468;2022-12-15T17:45:43;-14.80;99.90
29341;DHT22;16337;59.536;13.468;2022-12-15T17:48:10;-14.80;99.90
29341;DHT22;16337;59.536;13.468;2022-12-15T17:50:36;-14.70;99.90
29341;DHT22;16337;59.536;13.468;2022-12-15T17:53:03;-14.70;99.90